Time;durP1;ratioP1;P1;durP2;ratioP2;P2;SDS_P1;SDS_P2;PMS_P1;PMS_P2;Temp;Humidity;BMP_temperature;BMP_pressure;BME280_temperature;BME280_humidity;BME280_pressure;Samples;Min_cycle;Max_cycle;Signal;HPM_P1;HPM_P2
2022/11/12 00:00:45;;;;;;;1.77;1.50;;;11.90;99.90;;;;;;5043014;28;20045;-80
2022/11/12 00:03:12;;;;;;;1.92;1.40;;;11.90;99.90;;;;;;5006218;28;20050;-80
2022/11/12 00:05:39;;;;;;;2.08;1.63;;;11.80;99.90;;;;;;5010470;28;20315;-80
2022/11/12 00:08:06;;;;;;;1.83;1.33;;;11.80;99.90;;;;;;5042232;28;20055;-79
2022/11/12 00:10:32;;;;;;;1.55;1.20;;;11.70;99.90;;;;;;5010272;28;20206;-80
2022/11/12 00:12:59;;;;;;;1.65;1.52;;;11.70;99.90;;;;;;5042546;28;20068;-80
2022/11/12 00:15:26;;;;;;;1.65;1.38;;;11.70;99.90;;;;;;5026531;28;20131;-80
2022/11/12 00:17:53;;;;;;;1.95;1.48;;;11.60;99.90;;;;;;5041289;28;20051;-79
2022/11/12 00:20:19;;;;;;;1.20;1.10;;;11.60;99.90;;;;;;5043591;28;20053;-79
2022/11/12 00:22:46;;;;;;;1.88;1.35;;;11.50;99.90;;;;;;5041640;28;20047;-79
2022/11/12 00:25:13;;;;;;;1.67;1.38;;;11.50;99.90;;;;;;5043927;28;20140;-79
2022/11/12 00:27:40;;;;;;;1.88;1.25;;;11.40;99.90;;;;;;5041956;28;20068;-79
2022/11/12 00:30:08;;;;;;;1.77;1.40;;;11.30;99.90;;;;;;5042626;28;20044;-80
2022/11/12 00:32:36;;;;;;;1.85;1.30;;;11.30;99.90;;;;;;5040950;28;20122;-79
2022/11/12 00:35:04;;;;;;;2.40;1.63;;;11.20;99.90;;;;;;5043028;28;20460;-79
2022/11/12 00:37:32;;;;;;;1.63;1.33;;;11.20;99.90;;;;;;5025657;28;20131;-79
2022/11/12 00:39:59;;;;;;;1.70;1.30;;;11.10;99.90;;;;;;5042642;28;20441;-79
2022/11/12 00:42:25;;;;;;;1.83;1.60;;;11.00;99.90;;;;;;5042608;28;20045;-80
2022/11/12 00:44:52;;;;;;;1.80;1.48;;;10.90;99.90;;;;;;5043836;28;20059;-79
2022/11/12 00:47:19;;;;;;;1.65;1.40;;;10.90;99.90;;;;;;5045940;28;20066;-79
2022/11/12 00:49:46;;;;;;;2.00;1.45;;;10.80;99.90;;;;;;5024572;28;20061;-79
2022/11/12 00:52:12;;;;;;;1.70;1.35;;;10.80;99.90;;;;;;5041900;28;20048;-80
2022/11/12 00:54:39;;;;;;;1.90;1.42;;;10.70;99.90;;;;;;5005627;28;20050;-80
2022/11/12 00:57:06;;;;;;;1.85;1.50;;;10.70;99.90;;;;;;5022342;28;20049;-79
2022/11/12 00:59:32;;;;;;;1.88;1.60;;;10.60;99.90;;;;;;5005564;28;20427;-80
2022/11/12 01:01:59;;;;;;;1.58;1.30;;;10.60;99.90;;;;;;5014544;28;20560;-80
2022/11/12 01:04:26;;;;;;;2.10;1.83;;;10.50;99.90;;;;;;5036529;28;20060;-81
2022/11/12 01:06:53;;;;;;;1.92;1.67;;;10.40;99.90;;;;;;5041187;28;20048;-80
2022/11/12 01:09:20;;;;;;;1.50;1.40;;;10.50;99.90;;;;;;5025364;28;20057;-80
2022/11/12 01:11:47;;;;;;;2.15;1.52;;;10.40;99.90;;;;;;5021060;28;20575;-79
2022/11/12 01:14:14;;;;;;;2.10;1.45;;;10.40;99.90;;;;;;5036603;28;20170;-79
2022/11/12 01:16:41;;;;;;;1.60;1.50;;;10.30;99.90;;;;;;5008155;28;20048;-80
2022/11/12 01:19:09;;;;;;;2.42;1.83;;;10.30;99.90;;;;;;5024025;28;20049;-80
2022/11/12 01:21:38;;;;;;;1.63;1.33;;;10.20;99.90;;;;;;5020189;28;20053;-80
2022/11/12 01:24:05;;;;;;;2.38;1.55;;;10.20;99.90;;;;;;5014296;28;20057;-80
2022/11/12 01:26:31;;;;;;;1.70;1.50;;;10.20;99.90;;;;;;5037434;28;20045;-80
2022/11/12 01:28:58;;;;;;;1.73;1.45;;;10.20;99.90;;;;;;5037959;28;20117;-80
2022/11/12 01:31:26;;;;;;;2.00;1.65;;;10.20;99.90;;;;;;5023176;28;20049;-80
2022/11/12 01:33:55;;;;;;;2.00;1.52;;;10.10;99.90;;;;;;5039942;28;20057;-80
2022/11/12 01:36:22;;;;;;;1.92;1.65;;;10.10;99.90;;;;;;5007290;28;20377;-81
2022/11/12 01:38:48;;;;;;;2.00;1.80;;;10.10;99.90;;;;;;5040709;28;20049;-79
2022/11/12 01:41:20;;;;;;;2.50;2.17;;;10.20;99.90;;;;;;5024048;28;20080;-80
2022/11/12 01:43:47;;;;;;;2.50;2.10;;;10.30;99.90;;;;;;5005271;28;20053;-80
2022/11/12 01:46:20;;;;;;;2.85;2.42;;;10.30;99.90;;;;;;5004259;28;20063;-79
2022/11/12 01:48:48;;;;;;;;;;;10.40;99.90;;;;;;5004594;28;20053;-80
2022/11/12 01:51:15;;;;;;;2.50;2.03;;;10.40;99.90;;;;;;5022135;28;20287;-79
2022/11/12 01:53:45;;;;;;;2.58;2.05;;;10.40;99.90;;;;;;5024650;28;20060;-79
2022/11/12 01:56:12;;;;;;;2.72;1.95;;;10.50;99.90;;;;;;5024303;28;20057;-79
2022/11/12 01:58:38;;;;;;;2.15;1.88;;;10.50;99.90;;;;;;5040513;28;20045;-79
2022/11/12 02:01:05;;;;;;;2.47;1.90;;;10.60;99.90;;;;;;5039997;28;20065;-79
2022/11/12 02:03:32;;;;;;;2.38;1.88;;;10.70;99.90;;;;;;5040904;28;20130;-79
2022/11/12 02:06:05;;;;;;;2.15;1.70;;;10.70;99.90;;;;;;5039896;28;20139;-79
2022/11/12 02:08:32;;;;;;;2.35;1.70;;;10.80;99.90;;;;;;5024151;28;20059;-80
2022/11/12 02:11:08;;;;;;;1.75;1.52;;;10.80;99.90;;;;;;5026294;28;20079;-80
2022/11/12 02:16:20;;;;;;;1.80;1.50;;;10.90;99.90;;;;;;5044929;28;20064;-80
2022/11/12 02:18:46;;;;;;;2.30;1.90;;;10.90;99.90;;;;;;5026209;28;20049;-80
2022/11/12 02:21:13;;;;;;;2.65;1.85;;;11.00;99.90;;;;;;5043811;28;20053;-80
2022/11/12 02:23:40;;;;;;;1.98;1.70;;;11.00;99.90;;;;;;5044511;28;20049;-80
2022/11/12 02:26:06;;;;;;;2.20;1.60;;;11.10;99.90;;;;;;5044947;28;20057;-80
2022/11/12 02:28:33;;;;;;;2.08;1.65;;;11.20;99.90;;;;;;5044882;28;20045;-80
2022/11/12 02:31:00;;;;;;;1.83;1.58;;;11.20;99.90;;;;;;5036417;28;20053;-80
2022/11/12 02:33:27;;;;;;;2.25;1.60;;;11.20;99.90;;;;;;5035703;28;20051;-80
2022/11/12 02:35:53;;;;;;;2.00;1.70;;;11.20;99.90;;;;;;5021336;28;20056;-80
2022/11/12 02:38:20;;;;;;;1.70;1.50;;;11.30;99.90;;;;;;5025082;28;20053;-79
2022/11/12 02:40:47;;;;;;;2.22;1.73;;;11.30;99.90;;;;;;5025465;28;20055;-80
2022/11/12 02:43:14;;;;;;;1.65;1.30;;;11.40;99.90;;;;;;5021821;28;20052;-80
2022/11/12 02:45:40;;;;;;;1.90;1.40;;;11.40;99.90;;;;;;5029637;28;20492;-79
2022/11/12 02:48:07;;;;;;;2.22;1.83;;;11.40;99.90;;;;;;5043019;28;20052;-80
2022/11/12 02:50:34;;;;;;;2.78;1.70;;;11.50;99.90;;;;;;5043182;28;20107;-80
2022/11/12 02:53:01;;;;;;;2.00;1.40;;;11.50;99.90;;;;;;5022989;28;20089;-80
2022/11/12 02:55:27;;;;;;;2.22;1.63;;;11.50;99.90;;;;;;4991613;28;20349;-80
2022/11/12 02:57:57;;;;;;;1.90;1.30;;;11.60;99.90;;;;;;5007028;28;20454;-80
2022/11/12 03:00:24;;;;;;;1.70;1.45;;;11.60;99.90;;;;;;5024376;28;20095;-79
2022/11/12 03:03:00;;;;;;;2.05;1.60;;;11.60;99.90;;;;;;5011759;28;20049;-80
2022/11/12 03:05:29;;;;;;;2.03;1.50;;;11.60;99.90;;;;;;5043348;28;20139;-80
2022/11/12 03:08:01;;;;;;;1.77;1.20;;;11.70;99.90;;;;;;5027046;28;20075;-80
2022/11/12 03:10:28;;;;;;;1.85;1.63;;;11.70;99.90;;;;;;5044187;28;20053;-80
2022/11/12 03:12:56;;;;;;;1.55;1.20;;;11.70;99.90;;;;;;5043570;28;20084;-80
2022/11/12 03:15:22;;;;;;;2.08;1.60;;;11.70;99.90;;;;;;5011005;28;20625;-80
2022/11/12 03:17:49;;;;;;;2.20;1.52;;;11.80;99.90;;;;;;5009680;28;20586;-79
2022/11/12 03:20:16;;;;;;;2.05;1.85;;;11.90;99.90;;;;;;5026683;28;20067;-80
2022/11/12 03:22:52;;;;;;;1.90;1.60;;;11.90;99.90;;;;;;5007061;28;20050;-79
2022/11/12 03:25:19;;;;;;;2.00;1.63;;;11.90;99.90;;;;;;5023702;28;20049;-80
2022/11/12 03:27:46;;;;;;;2.22;1.77;;;12.00;99.90;;;;;;5024730;28;20659;-80
2022/11/12 03:30:13;;;;;;;2.08;1.67;;;12.00;99.90;;;;;;5025959;28;20041;-80
2022/11/12 03:32:39;;;;;;;2.10;1.55;;;12.00;99.90;;;;;;5030040;28;20507;-79
2022/11/12 03:35:06;;;;;;;2.78;1.67;;;12.00;99.90;;;;;;5030674;28;20629;-79
2022/11/12 03:37:33;;;;;;;2.33;1.77;;;12.00;99.90;;;;;;5047342;28;20048;-79
2022/11/12 03:40:00;;;;;;;2.75;1.77;;;12.10;99.90;;;;;;5014829;28;20056;-79
2022/11/12 03:42:27;;;;;;;1.83;1.73;;;12.10;99.90;;;;;;5030888;28;20071;-79
2022/11/12 03:44:53;;;;;;;2.17;1.85;;;12.10;99.90;;;;;;5030927;28;20524;-79
2022/11/12 03:47:20;;;;;;;2.25;2.00;;;12.20;99.90;;;;;;5030340;28;20049;-80
2022/11/12 03:49:47;;;;;;;3.45;1.90;;;12.20;99.90;;;;;;5045563;28;20076;-79
2022/11/12 03:52:14;;;;;;;2.17;1.80;;;12.30;99.90;;;;;;5046493;28;20075;-80
2022/11/12 03:54:41;;;;;;;2.17;1.73;;;12.30;99.90;;;;;;5048093;28;20053;-80
2022/11/12 03:57:08;;;;;;;2.42;2.22;;;12.30;99.90;;;;;;5048008;28;20049;-80
2022/11/12 03:59:36;;;;;;;2.25;1.60;;;12.40;99.90;;;;;;5047119;28;20422;-78
2022/11/12 04:02:02;;;;;;;2.30;1.92;;;12.40;99.90;;;;;;5047483;28;20041;-80
2022/11/12 04:08:34;;;;;;;2.67;2.22;;;12.40;99.90;;;;;;5046938;28;20072;-80
2022/11/12 04:10:01;;;;;;;2.05;1.85;;;12.50;99.90;;;;;;5048185;28;20045;-80
2022/11/12 04:15:13;;;;;;;2.47;1.98;;;12.50;99.90;;;;;;5046905;28;20416;-79
2022/11/12 04:23:10;;;;;;;1.95;1.70;;;12.50;99.90;;;;;;5032311;28;20123;-80
2022/11/12 04:28:23;;;;;;;1.80;1.52;;;12.50;99.90;;;;;;5046537;28;20120;-80
2022/11/12 04:30:51;;;;;;;2.53;1.75;;;12.40;99.90;;;;;;5013778;28;20045;-80
2022/11/12 04:33:17;;;;;;;2.67;1.92;;;12.40;99.90;;;;;;5045215;28;20071;-80
2022/11/12 04:35:44;;;;;;;3.20;1.92;;;12.30;99.90;;;;;;5045719;28;20445;-79
2022/11/12 04:38:11;;;;;;;2.13;1.88;;;12.20;99.90;;;;;;5047625;28;20144;-79
2022/11/12 04:46:09;;;;;;;2.22;1.70;;;12.00;99.90;;;;;;5031746;28;20057;-79
2022/11/12 04:48:36;;;;;;;2.33;1.90;;;11.90;99.90;;;;;;5012553;28;20071;-79
2022/11/12 04:52:03;;;;;;;2.65;2.00;;;11.80;99.90;;;;;;5028331;28;20053;-79
2022/11/12 04:53:50;;;;;;;1.95;1.38;;;11.70;99.90;;;;;;5031823;28;20059;-79
2022/11/12 04:56:17;;;;;;;1.77;1.55;;;11.70;99.90;;;;;;5045550;28;20053;-80
2022/11/12 04:58:43;;;;;;;1.95;1.70;;;11.60;99.90;;;;;;5047114;28;20135;-79
2022/11/12 05:01:10;;;;;;;1.83;1.45;;;11.50;99.90;;;;;;5012118;28;20366;-79
2022/11/12 05:03:37;;;;;;;1.63;1.40;;;11.50;99.90;;;;;;5044791;28;20064;-79
2022/11/12 05:06:50;;;;;;;1.98;1.70;;;11.40;99.90;;;;;;5044942;28;20056;-80
2022/11/12 05:08:51;;;;;;;1.73;1.50;;;11.30;99.90;;;;;;5031403;28;20145;-79
2022/11/12 05:11:18;;;;;;;1.63;1.50;;;11.10;99.90;;;;;;5045139;28;20045;-81
2022/11/12 05:13:44;;;;;;;2.55;1.88;;;11.00;99.90;;;;;;5025330;28;20524;-81
2022/11/12 05:16:12;;;;;;;2.00;1.58;;;11.00;99.90;;;;;;5041858;28;20199;-81
2022/11/12 05:18:38;;;;;;;1.60;1.30;;;11.00;99.90;;;;;;5041480;28;20084;-80
2022/11/12 05:22:04;;;;;;;1.92;1.50;;;10.90;99.90;;;;;;5009240;28;20049;-81
2022/11/12 05:23:52;;;;;;;1.80;1.50;;;10.80;99.90;;;;;;5037530;28;20048;-81
2022/11/12 05:26:18;;;;;;;1.88;1.40;;;10.70;99.90;;;;;;5029072;28;20052;-79
2022/11/12 05:28:45;;;;;;;1.63;1.42;;;10.70;99.90;;;;;;5046336;28;20052;-81
2022/11/12 05:31:12;;;;;;;1.77;1.50;;;10.60;99.90;;;;;;5044620;28;20053;-81
2022/11/12 05:33:39;;;;;;;2.10;1.60;;;10.60;99.90;;;;;;5045132;28;20166;-81
2022/11/12 05:36:06;;;;;;;1.55;1.33;;;10.50;99.90;;;;;;5045605;28;20049;-81
2022/11/12 05:38:32;;;;;;;1.75;1.40;;;10.50;99.90;;;;;;5028881;28;20048;-81
2022/11/12 05:40:59;;;;;;;1.83;1.50;;;10.50;99.90;;;;;;5045665;28;20464;-81
2022/11/12 05:43:26;;;;;;;1.83;1.52;;;10.50;99.90;;;;;;5024703;28;20045;-80
2022/11/12 05:45:53;;;;;;;2.25;1.65;;;10.50;99.90;;;;;;5024625;28;20795;-80
2022/11/12 05:48:20;;;;;;;2.55;2.00;;;10.50;99.90;;;;;;5023576;28;20079;-80
2022/11/12 05:50:50;;;;;;;1.55;1.30;;;10.60;99.90;;;;;;5006214;28;20140;-80
2022/11/12 05:53:38;;;;;;;1.48;1.27;;;10.60;99.90;;;;;;5032113;28;20049;-80
2022/11/12 05:56:06;;;;;;;1.77;1.40;;;10.70;99.90;;;;;;5009739;28;20056;-80
2022/11/12 05:58:33;;;;;;;1.98;1.45;;;10.80;99.90;;;;;;5042431;28;20382;-80
2022/11/12 06:01:00;;;;;;;1.77;1.42;;;10.90;99.90;;;;;;5009496;28;20181;-80
2022/11/12 06:03:26;;;;;;;1.70;1.42;;;11.00;99.90;;;;;;5039662;28;20049;-80
2022/11/12 06:05:53;;;;;;;1.70;1.50;;;11.10;99.90;;;;;;5023887;28;20075;-79
2022/11/12 06:08:20;;;;;;;2.00;1.50;;;11.10;99.90;;;;;;5041682;28;20056;-80
2022/11/12 06:10:51;;;;;;;2.28;1.52;;;11.10;99.90;;;;;;5040986;28;20491;-78
2022/11/12 06:13:18;;;;;;;1.70;1.35;;;11.20;99.90;;;;;;5040334;28;20044;-79
2022/11/12 06:15:45;;;;;;;1.65;1.30;;;11.30;99.90;;;;;;5024360;28;20057;-80
2022/11/12 06:18:12;;;;;;;2.00;1.55;;;11.40;99.90;;;;;;5022700;28;20135;-78
2022/11/12 06:20:38;;;;;;;2.20;1.80;;;11.40;99.90;;;;;;5039967;28;20060;-79
2022/11/12 06:23:05;;;;;;;2.10;1.90;;;11.50;99.90;;;;;;5023276;28;20087;-79
2022/11/12 06:25:32;;;;;;;2.22;1.83;;;11.60;99.90;;;;;;5007767;28;20067;-80
2022/11/12 06:27:59;;;;;;;1.65;1.55;;;11.60;99.90;;;;;;5007353;28;20051;-80
2022/11/12 06:30:26;;;;;;;2.20;2.00;;;11.70;99.90;;;;;;5040304;28;20520;-80
2022/11/12 06:32:52;;;;;;;2.00;1.60;;;11.70;99.90;;;;;;5040421;28;20053;-80
2022/11/12 06:35:19;;;;;;;2.35;1.92;;;11.70;99.90;;;;;;5037249;28;20048;-79
2022/11/12 06:37:46;;;;;;;3.15;2.15;;;11.80;99.90;;;;;;5034796;28;20049;-80
2022/11/12 06:40:13;;;;;;;2.53;2.22;;;11.80;99.90;;;;;;5009967;28;20470;-79
2022/11/12 06:42:40;;;;;;;2.42;2.17;;;11.90;99.90;;;;;;5021257;28;20111;-78
2022/11/12 06:45:07;;;;;;;3.28;2.67;;;11.90;99.90;;;;;;5035052;28;20073;-80
2022/11/12 06:47:34;;;;;;;2.90;2.60;;;11.90;99.90;;;;;;5008113;28;20054;-80
2022/11/12 06:50:01;;;;;;;2.80;2.50;;;12.00;99.90;;;;;;5015109;28;20073;-79
2022/11/12 06:52:28;;;;;;;2.50;2.08;;;12.00;99.90;;;;;;5026485;28;20138;-79
2022/11/12 06:54:54;;;;;;;2.40;2.08;;;12.00;99.90;;;;;;5033450;28;20087;-80
2022/11/12 06:57:21;;;;;;;2.83;2.30;;;12.00;99.90;;;;;;5029177;28;20152;-80
2022/11/12 06:59:48;;;;;;;2.53;2.33;;;12.10;99.90;;;;;;5007656;28;20491;-79
2022/11/12 07:02:15;;;;;;;2.70;2.03;;;12.10;99.90;;;;;;5032306;28;20155;-79
2022/11/12 07:04:42;;;;;;;3.67;2.60;;;12.10;99.90;;;;;;5031993;28;20079;-79
2022/11/12 07:07:08;;;;;;;2.15;1.95;;;12.10;99.90;;;;;;5036475;28;20049;-79
2022/11/12 07:09:36;;;;;;;3.20;2.65;;;12.20;99.90;;;;;;5028413;28;20136;-80
2022/11/12 07:12:03;;;;;;;3.83;2.72;;;12.20;99.90;;;;;;5033470;28;20049;-79
2022/11/12 07:14:30;;;;;;;3.20;2.80;;;12.20;99.90;;;;;;5002370;28;20455;-79
2022/11/12 07:16:57;;;;;;;3.78;2.55;;;12.20;99.90;;;;;;5032681;28;20427;-79
2022/11/12 07:19:24;;;;;;;2.75;2.45;;;12.30;99.90;;;;;;5030280;28;20050;-80
2022/11/12 07:21:51;;;;;;;2.75;2.45;;;12.30;99.90;;;;;;5030061;28;20489;-81
2022/11/12 07:24:18;;;;;;;2.05;1.70;;;12.30;99.90;;;;;;5030113;28;20055;-80
2022/11/12 07:26:44;;;;;;;2.60;2.13;;;12.30;99.90;;;;;;5033552;28;20045;-79
2022/11/12 07:29:13;;;;;;;3.17;2.88;;;12.40;99.90;;;;;;5023786;28;20057;-79
2022/11/12 07:32:00;;;;;;;3.03;2.60;;;12.40;99.90;;;;;;5034528;28;20044;-79
2022/11/12 07:34:27;;;;;;;3.35;2.90;;;12.40;99.90;;;;;;5025040;28;20057;-81
2022/11/12 07:36:54;;;;;;;2.75;2.42;;;12.50;99.90;;;;;;5005413;28;20069;-81
2022/11/12 07:39:20;;;;;;;3.22;2.92;;;12.50;99.90;;;;;;5025834;28;20409;-80
2022/11/12 07:41:47;;;;;;;3.13;2.80;;;12.60;99.90;;;;;;5032023;28;20052;-81
2022/11/12 07:44:14;;;;;;;2.83;2.53;;;12.60;99.90;;;;;;5028789;28;20128;-81
2022/11/12 07:46:41;;;;;;;2.83;2.38;;;12.60;99.90;;;;;;5027402;28;20053;-81
2022/11/12 07:49:07;;;;;;;2.90;2.58;;;12.60;99.90;;;;;;5000789;28;20084;-81
2022/11/12 07:51:34;;;;;;;3.70;3.10;;;12.70;99.90;;;;;;5006718;28;20516;-81
2022/11/12 07:54:01;;;;;;;2.50;2.17;;;12.70;99.90;;;;;;5034841;28;20051;-81
2022/11/12 07:56:28;;;;;;;2.55;2.33;;;12.70;99.90;;;;;;5024683;28;20084;-80
2022/11/12 07:58:55;;;;;;;2.97;2.20;;;12.80;99.90;;;;;;5031690;28;20450;-81
2022/11/12 08:01:33;;;;;;;3.15;2.47;;;12.80;99.90;;;;;;5028971;28;20106;-81
2022/11/12 08:04:00;;;;;;;2.92;2.63;;;12.90;99.90;;;;;;5019925;28;20162;-81
2022/11/12 08:06:27;;;;;;;2.78;2.38;;;12.90;99.90;;;;;;5007642;28;20152;-81
2022/11/12 08:08:55;;;;;;;2.60;2.38;;;12.90;99.90;;;;;;5040862;28;20523;-81
2022/11/12 08:11:22;;;;;;;3.17;2.42;;;13.00;99.90;;;;;;5022389;28;20120;-81
2022/11/12 08:13:49;;;;;;;2.42;2.20;;;13.00;99.90;;;;;;5015784;28;20125;-82
2022/11/12 08:16:15;;;;;;;3.05;2.75;;;13.00;99.90;;;;;;5034163;28;20485;-81
2022/11/12 08:18:43;;;;;;;2.75;2.40;;;13.10;99.90;;;;;;5026733;28;20123;-81
2022/11/12 08:21:11;;;;;;;3.03;2.35;;;13.20;99.90;;;;;;5037365;28;20053;-81
2022/11/12 08:23:38;;;;;;;3.00;2.40;;;13.20;99.90;;;;;;5036747;28;20132;-81
2022/11/12 08:26:06;;;;;;;2.53;2.33;;;13.20;99.90;;;;;;5010419;28;20057;-81
2022/11/12 08:28:34;;;;;;;2.95;2.63;;;13.20;99.90;;;;;;4990300;28;20067;-80
2022/11/12 08:31:25;;;;;;;2.85;2.40;;;13.30;99.90;;;;;;5037678;28;20052;-81
2022/11/12 08:33:52;;;;;;;2.72;2.40;;;13.30;99.90;;;;;;5035591;28;20162;-80
2022/11/12 08:36:19;;;;;;;3.78;3.20;;;13.40;99.90;;;;;;5033539;28;20053;-80
2022/11/12 08:38:45;;;;;;;4.10;3.17;;;13.40;99.90;;;;;;5002984;28;20057;-81
2022/11/12 08:41:13;;;;;;;3.55;3.03;;;13.40;99.90;;;;;;5011685;28;20496;-82
2022/11/12 08:43:40;;;;;;;3.22;2.40;;;13.50;99.90;;;;;;5020196;28;20050;-82
2022/11/12 08:46:07;;;;;;;3.47;3.00;;;13.50;99.90;;;;;;5027679;28;20505;-83
2022/11/12 08:48:33;;;;;;;2.80;2.25;;;13.60;99.90;;;;;;5020926;28;20136;-82
2022/11/12 08:51:04;;;;;;;3.17;2.88;;;13.70;99.90;;;;;;5010349;28;20064;-81
2022/11/12 08:53:30;;;;;;;2.83;2.50;;;13.70;99.90;;;;;;5000802;28;20073;-87
2022/11/12 08:55:57;;;;;;;3.22;2.80;;;13.70;99.90;;;;;;5043281;28;20049;-86
2022/11/12 08:58:24;;;;;;;2.85;2.65;;;13.80;99.90;;;;;;5030762;28;20049;-88
2022/11/12 09:00:52;;;;;;;2.95;2.30;;;13.80;99.90;;;;;;5022451;28;20053;-86
2022/11/12 09:03:21;;;;;;;2.38;1.95;;;13.90;99.90;;;;;;5020529;28;20077;-86
2022/11/12 09:05:48;;;;;;;2.80;2.17;;;13.90;99.90;;;;;;5036172;28;20054;-87
2022/11/12 09:08:17;;;;;;;3.55;3.03;;;14.00;99.90;;;;;;5025868;28;20057;-87
2022/11/12 09:10:45;;;;;;;4.25;2.90;;;14.00;99.90;;;;;;5027762;28;20103;-87
2022/11/12 09:13:13;;;;;;;2.88;2.53;;;13.90;99.90;;;;;;5041196;28;20053;-88
2022/11/12 09:15:39;;;;;;;2.53;2.33;;;14.00;99.90;;;;;;5010249;28;20080;-86
2022/11/12 09:18:09;;;;;;;3.00;2.38;;;14.10;99.90;;;;;;5025915;28;20265;-87
2022/11/12 09:20:36;;;;;;;4.80;2.05;;;14.10;99.90;;;;;;5045233;28;20044;-87
2022/11/12 09:23:05;;;;;;;3.95;2.63;;;14.20;99.90;;;;;;5029104;28;20137;-88
2022/11/12 09:25:32;;;;;;;3.55;3.08;;;14.20;99.90;;;;;;5029639;28;20141;-87
2022/11/12 09:28:07;;;;;;;2.75;2.33;;;14.20;99.90;;;;;;5028745;28;20049;-88
2022/11/12 09:30:35;;;;;;;2.78;2.05;;;14.30;99.90;;;;;;5029859;28;20567;-87
2022/11/12 09:33:01;;;;;;;2.45;2.25;;;14.40;99.90;;;;;;5013332;28;20049;-87
2022/11/12 09:35:29;;;;;;;3.00;2.33;;;14.40;99.90;;;;;;5029918;28;20538;-88
2022/11/12 09:37:58;;;;;;;2.40;2.20;;;14.40;99.90;;;;;;5046751;28;20049;-87
2022/11/12 09:40:52;;;;;;;2.80;2.40;;;14.40;99.90;;;;;;5046515;28;20132;-87
2022/11/12 09:43:22;;;;;;;;;;;14.40;99.90;;;;;;5021374;28;20083;-88
2022/11/12 09:45:49;;;;;;;3.28;2.40;;;14.40;99.90;;;;;;5046205;28;20559;-88
2022/11/12 09:48:38;;;;;;;2.80;2.20;;;14.40;99.90;;;;;;5032454;28;20041;-87
2022/11/12 09:51:14;;;;;;;2.22;1.85;;;14.40;99.90;;;;;;5027975;28;20053;-87
2022/11/12 09:53:55;;;;;;;2.17;1.83;;;14.40;99.90;;;;;;5030661;28;20049;-86
2022/11/12 09:56:23;;;;;;;3.30;2.40;;;14.40;99.90;;;;;;5044394;28;20053;-82
2022/11/12 09:58:50;;;;;;;2.38;1.88;;;14.50;99.90;;;;;;5038948;28;20049;-81
2022/11/12 10:01:40;;;;;;;2.88;1.85;;;14.60;99.90;;;;;;5038421;28;20053;-82
2022/11/12 10:04:19;;;;;;;2.58;2.10;;;14.70;99.90;;;;;;5034698;28;20186;-82
2022/11/12 10:07:09;;;;;;;3.78;2.60;;;14.80;99.90;;;;;;5038332;28;20180;-81
2022/11/12 10:09:44;;;;;;;2.50;2.20;;;14.90;99.90;;;;;;5038452;28;20049;-82
2022/11/12 10:12:37;;;;;;;2.55;2.20;;;14.90;99.90;;;;;;5040135;28;20507;-80
2022/11/12 10:18:43;;;;;;;2.53;2.33;;;15.10;99.90;;;;;;5038405;28;20674;-81
2022/11/12 10:21:19;;;;;;;2.90;2.40;;;15.20;99.90;;;;;;5037397;28;20053;-81
2022/11/12 10:23:47;;;;;;;2.95;2.13;;;15.30;99.90;;;;;;5038312;28;20140;-80
2022/11/12 10:26:16;;;;;;;3.13;2.08;;;15.40;99.90;;;;;;5022203;28;20128;-81
2022/11/12 10:28:48;;;;;;;2.47;1.92;;;15.50;99.90;;;;;;5038205;28;20085;-81
2022/11/12 10:31:16;;;;;;;2.17;1.63;;;15.60;99.90;;;;;;5022347;28;20651;-81
2022/11/12 10:33:43;;;;;;;2.38;2.10;;;15.60;99.90;;;;;;5038542;28;20099;-81
2022/11/12 10:36:23;;;;;;;5.10;2.30;;;15.70;99.90;;;;;;5004524;28;20125;-81
2022/11/12 10:38:52;;;;;;;2.20;2.00;;;15.70;99.90;;;;;;5023119;28;20053;-80
2022/11/12 10:41:21;;;;;;;2.90;2.42;;;15.70;99.90;;;;;;5005677;28;20115;-81
2022/11/12 10:44:02;;;;;;;2.38;1.90;;;15.70;99.90;;;;;;5001131;28;20603;-80
2022/11/12 10:46:34;;;;;;;1.90;1.70;;;15.80;99.90;;;;;;4986402;28;20299;-81
2022/11/12 10:49:15;;;;;;;4.28;2.80;;;15.90;99.90;;;;;;5004441;28;20597;-80
2022/11/12 10:51:42;;;;;;;2.80;2.30;;;15.90;99.90;;;;;;5036975;28;20059;-82
2022/11/12 10:54:25;;;;;;;2.38;1.98;;;15.90;99.90;;;;;;5000096;28;20511;-81
2022/11/12 10:56:52;;;;;;;;;;;15.90;99.90;;;;;;5017712;28;20057;-81
2022/11/12 10:59:24;;;;;;;2.30;1.50;;;16.00;99.90;;;;;;5024107;28;19968;-83
2022/11/12 11:01:56;;;;;;;2.55;1.90;;;16.00;99.90;;;;;;5037719;28;20049;-82
2022/11/12 11:04:36;;;;;;;1.90;1.70;;;16.10;99.90;;;;;;5036610;28;20055;-81
2022/11/12 11:07:19;;;;;;;2.50;1.70;;;16.20;99.90;;;;;;5003781;28;20056;-82
2022/11/12 11:09:53;;;;;;;1.98;1.73;;;16.30;99.90;;;;;;5020643;28;20048;-82
2022/11/12 11:12:32;;;;;;;2.90;2.13;;;16.30;99.90;;;;;;5021726;28;20057;-81
2022/11/12 11:15:06;;;;;;;2.38;1.95;;;16.30;99.90;;;;;;5001523;28;20187;-80
2022/11/12 11:17:33;;;;;;;2.25;1.70;;;16.30;99.90;;;;;;5018009;28;20139;-80
2022/11/12 11:20:00;;;;;;;1.92;1.70;;;16.30;99.90;;;;;;5001081;28;20057;-80
2022/11/12 11:23:24;;;;;;;2.10;1.65;;;16.30;99.90;;;;;;5014726;28;20289;-82
2022/11/12 11:25:52;;;;;;;2.70;2.10;;;16.20;99.90;;;;;;5022045;28;20056;-81
2022/11/12 11:28:36;;;;;;;2.65;2.38;;;16.20;99.90;;;;;;5012043;28;20132;-82
2022/11/12 11:31:32;;;;;;;2.63;2.22;;;16.20;99.90;;;;;;4996487;28;20051;-82
2022/11/12 11:34:26;;;;;;;2.05;1.85;;;16.30;99.90;;;;;;5022890;28;20132;-82
2022/11/12 11:37:05;;;;;;;2.47;2.10;;;16.30;99.90;;;;;;5027755;28;20053;-81
2022/11/12 11:40:09;;;;;;;2.50;2.15;;;16.20;99.90;;;;;;5009505;28;20156;-81
2022/11/12 11:43:12;;;;;;;2.30;1.90;;;16.30;99.90;;;;;;5010006;28;20148;-81
2022/11/12 11:45:51;;;;;;;2.85;1.73;;;16.40;99.90;;;;;;5028910;28;20059;-81
2022/11/12 11:48:35;;;;;;;2.05;1.80;;;16.60;99.90;;;;;;5022560;28;20570;-80
2022/11/12 11:51:09;;;;;;;2.78;2.25;;;16.70;99.90;;;;;;5002242;28;20063;-81
2022/11/12 11:53:57;;;;;;;3.53;2.50;;;16.70;99.90;;;;;;5009446;28;20051;-80
2022/11/12 11:56:35;;;;;;;2.47;2.28;;;16.90;99.90;;;;;;5026847;28;20644;-81
2022/11/12 11:59:29;;;;;;;2.53;2.33;;;17.00;99.90;;;;;;5022652;28;20219;-81
2022/11/12 12:02:15;;;;;;;3.38;3.08;;;17.30;99.90;;;;;;5021553;28;20438;-81
2022/11/12 12:04:46;;;;;;;3.33;2.90;;;17.40;99.90;;;;;;5038003;28;20135;-81
2022/11/12 12:07:46;;;;;;;2.90;2.60;;;17.30;99.90;;;;;;5007181;28;20068;-81
2022/11/12 12:10:18;;;;;;;3.13;2.28;;;17.20;99.90;;;;;;5003191;28;20065;-81
2022/11/12 12:13:12;;;;;;;2.70;2.22;;;17.30;99.90;;;;;;5012562;28;20682;-82
2022/11/12 12:16:01;;;;;;;2.90;2.50;;;17.50;99.90;;;;;;5023680;28;20045;-82
2022/11/12 12:18:36;;;;;;;2.80;2.30;;;17.50;99.90;;;;;;5018170;28;20057;-81
2022/11/12 12:21:16;;;;;;;2.40;2.13;;;17.50;99.90;;;;;;5036628;28;20264;-81
2022/11/12 12:24:13;;;;;;;2.10;1.90;;;17.40;99.90;;;;;;5002712;28;20101;-80
2022/11/12 12:27:02;;;;;;;1.80;1.60;;;17.50;99.90;;;;;;5019534;28;20056;-80
2022/11/12 12:29:33;;;;;;;2.17;1.73;;;17.70;99.90;;;;;;5007393;28;20627;-82
2022/11/12 12:32:13;;;;;;;1.52;1.30;;;18.00;99.90;;;;;;5003514;28;20045;-82
2022/11/12 12:34:46;;;;;;;1.85;1.63;;;18.20;99.90;;;;;;5035890;28;20057;-82
2022/11/12 12:37:21;;;;;;;2.35;1.77;;;18.40;99.90;;;;;;5021197;28;20408;-82
2022/11/12 12:39:54;;;;;;;2.55;2.08;;;18.30;99.90;;;;;;5005777;28;20634;-81
2022/11/12 12:42:33;;;;;;;2.75;1.65;;;18.20;99.90;;;;;;5035249;28;20075;-81
2022/11/12 12:45:35;;;;;;;2.20;2.00;;;18.30;99.90;;;;;;5007176;28;20049;-83
2022/11/12 12:48:04;;;;;;;1.90;1.55;;;18.50;99.90;;;;;;5016494;28;20049;-82
2022/11/12 12:50:31;;;;;;;1.70;1.55;;;18.70;99.90;;;;;;5012326;28;20053;-81
2022/11/12 12:53:02;;;;;;;2.05;1.52;;;18.90;99.90;;;;;;5021315;28;20057;-82
2022/11/12 12:55:45;;;;;;;1.38;1.20;;;19.10;99.90;;;;;;5037048;28;20136;-82
2022/11/12 12:58:43;;;;;;;1.90;1.42;;;19.40;99.90;;;;;;5028437;28;20045;-82
2022/11/12 13:01:22;;;;;;;2.22;1.70;;;19.60;99.90;;;;;;5006841;28;20056;-82
2022/11/12 13:03:50;;;;;;;1.55;1.40;;;19.70;99.90;;;;;;5039238;28;20113;-82
2022/11/12 13:06:22;;;;;;;1.90;1.58;;;19.80;99.90;;;;;;5006124;28;20072;-81
2022/11/12 13:09:00;;;;;;;1.92;1.35;;;20.00;99.90;;;;;;5025692;28;20152;-82
2022/11/12 13:14:34;;;;;;;1.42;1.10;;;20.40;99.90;;;;;;5038203;28;20103;-80
2022/11/12 13:17:08;;;;;;;1.13;0.93;;;20.70;99.90;;;;;;5031640;28;20056;-81
2022/11/12 13:19:36;;;;;;;1.25;1.10;;;20.80;99.90;;;;;;5019313;28;20436;-82
2022/11/12 13:22:18;;;;;;;1.20;1.10;;;20.90;99.90;;;;;;5006404;28;20103;-82
2022/11/12 13:25:04;;;;;;;1.70;1.23;;;21.10;99.90;;;;;;5026417;28;20604;-80
2022/11/12 13:27:44;;;;;;;1.10;1.00;;;21.20;99.90;;;;;;5025595;28;20519;-80
2022/11/12 13:30:16;;;;;;;1.10;1.00;;;21.30;99.90;;;;;;5026175;28;20116;-80
2022/11/12 13:33:06;;;;;;;1.15;1.02;;;21.50;99.90;;;;;;5028757;28;20044;-80
2022/11/12 13:35:38;;;;;;;1.33;1.10;;;21.50;99.90;;;;;;5013146;28;20037;-80